createdAt,value
2023-09-11T00:02:34.828Z,39.00
2023-09-11T00:05:43.634Z,38.66
2023-09-11T00:08:47.602Z,38.64
2023-09-11T00:11:53.666Z,38.61
2023-09-11T00:14:59.750Z,38.75
2023-09-11T00:18:05.448Z,38.82
2023-09-11T00:21:10.834Z,38.09
2023-09-11T00:24:16.577Z,38.28
2023-09-11T00:27:22.196Z,37.94
2023-09-11T00:30:28.798Z,38.88
2023-09-11T00:33:34.355Z,38.50
2023-09-11T00:36:41.162Z,37.92
2023-09-11T00:39:46.835Z,38.42
2023-09-11T00:42:52.439Z,38.49
2023-09-11T00:45:59.860Z,38.46
2023-09-11T00:49:08.495Z,39.21
2023-09-11T00:52:14.150Z,39.43
2023-09-11T00:55:20.167Z,39.61
2023-09-11T00:58:25.810Z,39.34
2023-09-11T01:01:31.373Z,39.13
2023-09-11T01:04:36.866Z,39.46
2023-09-11T01:07:43.208Z,39.11
2023-09-11T01:10:49.008Z,39.32
2023-09-11T01:13:53.763Z,39.40
2023-09-11T01:17:16.228Z,39.64
2023-09-11T01:20:51.864Z,39.58
2023-09-11T01:24:22.392Z,39.32
2023-09-11T01:27:35.066Z,39.08
2023-09-11T01:30:40.771Z,39.54
2023-09-11T01:33:46.238Z,39.06
2023-09-11T01:36:52.931Z,38.94
2023-09-11T01:39:58.496Z,38.92
2023-09-11T01:43:07.230Z,39.08
2023-09-11T01:46:12.493Z,38.71
2023-09-11T01:49:17.974Z,38.73
2023-09-11T01:52:25.598Z,39.32
2023-09-11T01:55:31.372Z,39.21
2023-09-11T01:58:37.113Z,39.31
2023-09-11T02:01:43.236Z,39.30
2023-09-11T02:04:48.927Z,39.48
2023-09-11T02:07:55.440Z,39.52
2023-09-11T02:11:02.418Z,39.27
2023-09-11T02:14:08.632Z,39.16
2023-09-11T02:17:13.721Z,39.07
2023-09-11T02:20:21.227Z,39.12
2023-09-11T02:23:26.013Z,39.17
2023-09-11T02:26:32.820Z,38.74
2023-09-11T02:29:39.773Z,38.58
2023-09-11T02:32:46.043Z,39.14
2023-09-11T02:35:53.079Z,39.13
2023-09-11T02:38:59.366Z,39.01
2023-09-11T02:42:05.274Z,39.13
2023-09-11T02:45:11.682Z,39.04
2023-09-11T02:48:18.836Z,39.21
2023-09-11T02:51:25.282Z,39.40
2023-09-11T02:54:30.265Z,39.19
2023-09-11T02:57:35.821Z,39.04
2023-09-11T03:00:40.979Z,40.66
2023-09-11T03:03:47.201Z,40.13
2023-09-11T03:06:53.569Z,40.05
2023-09-11T03:09:59.744Z,39.93
2023-09-11T03:13:05.980Z,39.85
2023-09-11T03:16:10.912Z,39.83
2023-09-11T03:19:18.740Z,39.38
2023-09-11T03:22:24.316Z,39.37
2023-09-11T03:25:29.249Z,39.45
2023-09-11T03:28:34.154Z,39.50
2023-09-11T03:31:39.427Z,39.60
2023-09-11T03:34:44.658Z,39.75
2023-09-11T03:37:50.445Z,40.06
2023-09-11T03:40:55.617Z,39.85
2023-09-11T03:44:00.929Z,40.11
2023-09-11T03:47:05.877Z,40.09
2023-09-11T03:50:12.299Z,41.09
2023-09-11T03:53:18.210Z,41.16
2023-09-11T03:56:23.632Z,40.30
2023-09-11T03:59:29.524Z,40.19
2023-09-11T04:02:34.580Z,40.58
2023-09-11T04:05:40.447Z,40.13
2023-09-11T04:08:47.059Z,40.55
2023-09-11T04:11:53.694Z,40.75
2023-09-11T04:15:01.319Z,40.94
2023-09-11T04:18:07.042Z,41.05
2023-09-11T04:21:17.972Z,40.65
2023-09-11T04:24:23.392Z,40.67
2023-09-11T04:27:28.771Z,40.39
2023-09-11T04:30:34.750Z,40.39
2023-09-11T04:33:39.817Z,39.81
2023-09-11T04:36:45.531Z,39.94
2023-09-11T04:39:52.715Z,40.30
2023-09-11T04:42:59.530Z,39.67
2023-09-11T04:46:04.732Z,39.38
2023-09-11T04:49:09.557Z,39.61
2023-09-11T04:52:14.680Z,39.27
2023-09-11T04:55:21.036Z,37.95
2023-09-11T04:58:27.332Z,37.97
2023-09-11T05:01:32.130Z,37.57
2023-09-11T05:04:37.584Z,37.58
2023-09-11T05:07:44.269Z,37.09
2023-09-11T05:10:49.951Z,37.25
2023-09-11T05:13:56.269Z,36.71
2023-09-11T05:17:04.358Z,36.56
2023-09-11T05:20:10.262Z,36.40
2023-09-11T05:23:15.466Z,36.82
2023-09-11T05:26:20.959Z,35.58
2023-09-11T05:29:26.562Z,35.23
2023-09-11T05:32:33.741Z,35.23
2023-09-11T05:35:39.977Z,35.03
2023-09-11T05:38:46.057Z,35.42
2023-09-11T05:41:52.541Z,35.33
2023-09-11T05:44:58.168Z,36.09
2023-09-11T05:48:04.133Z,35.84
2023-09-11T05:51:02.779Z,34.86
2023-09-11T05:54:08.558Z,34.68
2023-09-11T05:57:14.214Z,34.65
2023-09-11T06:00:21.012Z,34.45
2023-09-11T06:03:26.436Z,35.04
2023-09-11T06:06:32.105Z,34.55
2023-09-11T06:09:37.899Z,33.89
2023-09-11T06:12:43.670Z,33.45
2023-09-11T06:15:51.185Z,33.52
2023-09-11T06:18:58.242Z,33.56
2023-09-11T06:22:05.031Z,33.69
2023-09-11T06:25:13.498Z,33.69
2023-09-11T06:28:19.903Z,33.59
2023-09-11T06:31:25.362Z,33.05
2023-09-11T06:34:31.983Z,32.67
2023-09-11T06:42:07.001Z,32.33
2023-09-11T06:45:13.350Z,32.09
2023-09-11T06:48:18.866Z,31.66
2023-09-11T06:51:24.672Z,31.62
2023-09-11T06:54:31.508Z,31.07
2023-09-11T06:57:37.484Z,30.83
2023-09-11T07:00:43.041Z,30.69
2023-09-11T07:03:48.298Z,30.47
2023-09-11T07:06:55.005Z,31.28
2023-09-11T07:10:02.177Z,30.98
2023-09-11T07:13:07.551Z,29.98
2023-09-11T07:16:16.389Z,29.41
2023-09-11T07:19:22.010Z,30.12
2023-09-11T07:22:26.852Z,29.53
2023-09-11T07:25:31.586Z,29.54
2023-09-11T07:28:37.847Z,29.97
2023-09-11T07:31:43.784Z,30.24
2023-09-11T07:34:50.729Z,29.18
2023-09-11T07:38:01.676Z,29.01
2023-09-11T07:41:08.090Z,28.71
2023-09-11T07:44:14.638Z,28.54
2023-09-11T07:47:22.562Z,28.59
2023-09-11T07:50:28.949Z,28.54
2023-09-11T07:53:34.167Z,27.89
2023-09-11T07:56:41.342Z,28.34
2023-09-11T07:59:46.207Z,28.56
2023-09-11T08:02:55.082Z,28.36
2023-09-11T08:06:03.121Z,27.86
2023-09-11T08:09:10.008Z,27.85
2023-09-11T08:12:16.750Z,27.61
2023-09-11T08:15:22.652Z,27.59
2023-09-11T08:18:29.695Z,27.73
2023-09-11T08:21:36.211Z,28.36
2023-09-11T08:24:41.762Z,28.80
2023-09-11T08:27:47.441Z,28.50
2023-09-11T08:30:54.061Z,28.20
2023-09-11T08:33:59.555Z,27.75
2023-09-11T08:37:04.764Z,28.19
2023-09-11T08:40:09.810Z,27.87
2023-09-11T08:43:15.868Z,27.61
2023-09-11T08:46:25.243Z,27.47
2023-09-11T08:49:33.968Z,26.56
2023-09-11T08:52:41.007Z,26.46
2023-09-11T08:55:48.450Z,26.29
2023-09-11T08:58:54.611Z,26.26
2023-09-11T09:02:00.478Z,25.82
2023-09-11T09:05:06.457Z,24.98
2023-09-11T09:08:12.231Z,24.58
2023-09-11T09:11:18.740Z,24.91
2023-09-11T09:14:25.281Z,24.66
2023-09-11T09:17:26.704Z,24.52
2023-09-11T09:20:20.356Z,23.90
2023-09-11T09:23:29.093Z,23.57
2023-09-11T09:26:38.139Z,23.27
2023-09-11T09:29:53.302Z,23.62
2023-09-11T09:33:00.066Z,23.74
2023-09-11T09:36:07.248Z,23.43
2023-09-11T09:39:12.489Z,22.94
2023-09-11T09:42:20.373Z,22.72
2023-09-11T09:45:30.254Z,22.62
2023-09-11T09:48:37.072Z,22.66
2023-09-11T09:51:43.038Z,22.95
2023-09-11T09:55:06.633Z,22.43
2023-09-11T09:58:13.260Z,22.48
2023-09-11T10:01:33.839Z,22.58
2023-09-11T10:04:40.843Z,22.51
2023-09-11T10:07:59.599Z,22.88
2023-09-11T10:11:05.253Z,22.94
2023-09-11T10:14:13.457Z,23.15
2023-09-11T10:17:19.204Z,23.13
2023-09-11T10:20:29.452Z,23.10
2023-09-11T10:23:35.403Z,23.01
2023-09-11T10:27:03.393Z,23.03
2023-09-11T10:30:20.146Z,23.23
2023-09-11T10:33:37.287Z,23.33
2023-09-11T10:36:51.748Z,22.98
2023-09-11T10:39:57.197Z,22.90
2023-09-11T10:43:04.147Z,22.88
2023-09-11T10:46:10.582Z,22.62
2023-09-11T10:49:16.561Z,22.36
2023-09-11T10:52:24.436Z,22.61
2023-09-11T10:55:31.829Z,22.37
2023-09-11T10:58:38.268Z,22.24
2023-09-11T11:01:43.743Z,21.96
2023-09-11T11:04:48.945Z,21.53
2023-09-11T11:07:54.661Z,21.91
2023-09-11T11:11:08.148Z,22.18
2023-09-11T11:14:33.540Z,22.38
2023-09-11T11:17:39.220Z,21.72
2023-09-11T11:20:45.603Z,21.54
2023-09-11T11:23:54.303Z,21.58
2023-09-11T11:26:59.552Z,21.77
2023-09-11T11:30:06.156Z,21.48
2023-09-11T11:33:11.827Z,21.43
2023-09-11T11:36:23.596Z,21.53
2023-09-11T11:39:31.211Z,21.61
2023-09-11T11:42:40.720Z,21.64
2023-09-11T11:45:45.514Z,21.32
2023-09-11T11:48:52.366Z,21.28
2023-09-11T11:51:58.822Z,21.57
2023-09-11T11:55:04.228Z,21.21
2023-09-11T11:58:11.460Z,21.30
2023-09-11T12:01:20.940Z,21.71
2023-09-11T12:04:41.330Z,21.85
2023-09-11T12:07:30.436Z,21.66
2023-09-11T12:10:19.910Z,21.82
2023-09-11T12:13:12.736Z,22.04
2023-09-11T12:16:06.270Z,21.78
2023-09-11T12:18:58.619Z,21.56
2023-09-11T12:21:44.461Z,21.42
2023-09-11T12:24:37.357Z,21.17
2023-09-11T12:27:30.687Z,21.11
2023-09-11T12:30:35.831Z,21.08
2023-09-11T12:33:43.325Z,21.21
2023-09-11T12:36:49.006Z,21.28
2023-09-11T12:39:54.517Z,21.52
2023-09-11T12:42:59.460Z,21.41
2023-09-11T12:46:05.059Z,21.39
2023-09-11T12:49:11.156Z,21.32
2023-09-11T12:52:17.195Z,20.83
2023-09-11T12:55:22.243Z,21.10
2023-09-11T12:58:28.165Z,21.39
2023-09-11T13:01:34.124Z,21.39
2023-09-11T13:04:40.011Z,21.27
2023-09-11T13:07:45.624Z,21.34
2023-09-11T13:10:50.397Z,21.12
2023-09-11T13:14:12.880Z,21.47
2023-09-11T13:17:02.736Z,21.46
2023-09-11T13:20:08.479Z,21.32
2023-09-11T13:23:15.227Z,21.41
2023-09-11T13:26:20.539Z,21.65
2023-09-11T13:29:26.604Z,21.47
2023-09-11T13:32:31.903Z,21.34
2023-09-11T13:35:37.274Z,21.19
2023-09-11T13:38:43.925Z,20.99
2023-09-11T13:41:50.894Z,21.03
2023-09-11T13:44:56.432Z,21.23
2023-09-11T13:48:02.327Z,21.08
2023-09-11T13:51:08.306Z,21.13
2023-09-11T13:54:13.872Z,21.42
2023-09-11T13:57:20.214Z,21.32
2023-09-11T14:00:25.914Z,21.43
2023-09-11T14:03:32.543Z,21.62
2023-09-11T14:06:39.888Z,21.72
2023-09-11T14:09:46.182Z,21.98
2023-09-11T14:12:51.364Z,22.10
2023-09-11T14:15:57.064Z,21.96
2023-09-11T14:19:02.617Z,21.95
2023-09-11T14:22:07.344Z,21.90
2023-09-11T14:25:12.975Z,21.98
2023-09-11T14:28:17.784Z,22.72
2023-09-11T14:31:22.791Z,22.33
2023-09-11T14:34:29.538Z,22.14
2023-09-11T14:37:34.167Z,21.95
2023-09-11T14:40:39.919Z,22.11
2023-09-11T14:43:46.086Z,22.08
2023-09-11T14:46:52.488Z,22.01
2023-09-11T14:49:58.740Z,22.19
2023-09-11T14:53:03.913Z,22.03
2023-09-11T14:56:10.156Z,22.15
2023-09-11T14:59:15.789Z,22.35
2023-09-11T15:02:22.048Z,22.70
2023-09-11T15:05:27.328Z,22.63
2023-09-11T15:08:32.830Z,22.64
2023-09-11T15:11:38.167Z,22.64
2023-09-11T15:14:46.325Z,22.86
2023-09-11T15:17:52.701Z,22.98
2023-09-11T15:20:58.961Z,23.00
2023-09-11T15:24:06.487Z,23.12
2023-09-11T15:27:12.496Z,23.07
2023-09-11T15:30:18.754Z,23.24
2023-09-11T15:33:25.868Z,23.22
2023-09-11T15:36:31.766Z,23.18
2023-09-11T15:39:37.681Z,23.49
2023-09-11T15:42:42.742Z,23.64
2023-09-11T15:45:48.442Z,23.60
2023-09-11T15:48:54.384Z,23.82
2023-09-11T15:52:00.295Z,23.82
2023-09-11T15:55:05.452Z,24.13
2023-09-11T15:58:11.896Z,24.17
2023-09-11T16:01:17.865Z,24.29
2023-09-11T16:04:24.278Z,24.35
2023-09-11T16:07:31.504Z,24.29
2023-09-11T16:10:37.327Z,24.44
2023-09-11T16:13:43.408Z,24.50
2023-09-11T16:16:48.538Z,24.52
2023-09-11T16:19:54.347Z,24.72
2023-09-11T16:23:01.758Z,25.05
2023-09-11T16:26:06.962Z,25.25
2023-09-11T16:29:14.161Z,25.18
2023-09-11T16:32:19.800Z,25.16
2023-09-11T16:35:25.871Z,25.48
2023-09-11T16:38:33.517Z,25.65
2023-09-11T16:41:39.132Z,25.92
2023-09-11T16:44:45.535Z,26.02
2023-09-11T16:47:51.020Z,26.27
2023-09-11T16:50:56.171Z,26.51
2023-09-11T16:54:00.903Z,26.71
2023-09-11T16:57:07.664Z,26.84
2023-09-11T17:00:14.298Z,27.03
2023-09-11T17:03:21.061Z,27.14
2023-09-11T17:06:26.634Z,27.22
2023-09-11T17:09:32.287Z,27.38
2023-09-11T17:12:38.206Z,27.80
2023-09-11T17:15:43.708Z,27.98
2023-09-11T17:18:48.637Z,28.04
2023-09-11T17:21:54.785Z,28.14
2023-09-11T17:25:00.475Z,28.25
2023-09-11T17:28:06.308Z,28.26
2023-09-11T17:31:11.956Z,28.54
2023-09-11T17:34:18.259Z,28.63
2023-09-11T17:37:24.639Z,28.82
2023-09-11T17:40:31.246Z,28.79
2023-09-11T17:43:36.829Z,29.02
2023-09-11T17:46:42.457Z,29.18
2023-09-11T17:49:48.394Z,29.29
2023-09-11T17:52:55.677Z,29.14
2023-09-11T17:56:02.024Z,28.98
2023-09-11T17:59:07.660Z,29.16
2023-09-11T18:02:14.696Z,29.23
2023-09-11T18:05:21.257Z,29.48
2023-09-11T18:08:27.119Z,29.71
2023-09-11T18:11:32.778Z,29.53
2023-09-11T18:14:39.455Z,29.60
2023-09-11T18:17:45.757Z,29.64
2023-09-11T18:20:54.075Z,29.88
2023-09-11T18:24:01.972Z,29.99
2023-09-11T18:27:07.439Z,30.28
2023-09-11T18:30:15.303Z,30.35
2023-09-11T18:33:21.305Z,30.35
2023-09-11T18:36:26.766Z,30.25
2023-09-11T18:39:35.360Z,30.39
2023-09-11T18:42:35.609Z,30.61
2023-09-11T18:45:22.956Z,30.69
2023-09-11T18:48:15.882Z,30.63
2023-09-11T18:51:01.928Z,30.90
2023-09-11T18:53:53.708Z,31.28
2023-09-11T18:56:53.114Z,31.38
2023-09-11T18:59:59.266Z,31.44
2023-09-11T19:03:06.398Z,31.77
2023-09-11T19:06:12.753Z,31.99
2023-09-11T19:09:19.838Z,32.54
2023-09-11T19:12:25.648Z,32.75
2023-09-11T19:15:31.112Z,32.66
2023-09-11T19:18:39.605Z,32.14
2023-09-11T19:21:45.479Z,31.93
2023-09-11T19:24:51.115Z,32.15
2023-09-11T19:27:56.624Z,32.06
2023-09-11T19:31:02.214Z,32.32
2023-09-11T19:34:07.754Z,32.53
2023-09-11T19:37:14.100Z,32.41
2023-09-11T19:40:21.426Z,32.70
2023-09-11T19:43:27.507Z,31.91
2023-09-11T19:46:33.041Z,31.58
2023-09-11T19:49:39.450Z,31.25
2023-09-11T19:52:46.022Z,31.36
2023-09-11T19:55:52.452Z,31.59
2023-09-11T19:58:57.426Z,31.85
2023-09-11T20:02:02.806Z,31.99
2023-09-11T20:05:07.538Z,31.82
2023-09-11T20:08:12.638Z,31.80
2023-09-11T20:11:18.123Z,31.97
2023-09-11T20:14:22.927Z,32.27
2023-09-11T20:17:28.131Z,32.37
2023-09-11T20:20:32.963Z,32.49
2023-09-11T20:23:38.460Z,32.88
2023-09-11T20:26:43.466Z,32.64
2023-09-11T20:29:49.010Z,32.93
2023-09-11T20:32:55.435Z,33.07
2023-09-11T20:36:01.136Z,33.15
2023-09-11T20:39:07.451Z,33.20
2023-09-11T20:42:13.258Z,33.19
2023-09-11T20:45:19.126Z,33.37
2023-09-11T20:48:24.677Z,33.05
2023-09-11T20:51:30.857Z,33.30
2023-09-11T20:54:36.543Z,33.54
2023-09-11T20:57:42.200Z,33.66
2023-09-11T21:00:49.949Z,34.00
2023-09-11T21:03:55.903Z,34.11
2023-09-11T21:07:01.815Z,34.03
2023-09-11T21:10:08.750Z,34.18
2023-09-11T21:13:14.437Z,34.48
2023-09-11T21:16:21.447Z,34.02
2023-09-11T21:19:26.596Z,34.03
2023-09-11T21:22:31.871Z,33.98
2023-09-11T21:25:37.830Z,34.06
2023-09-11T21:28:44.662Z,34.34
2023-09-11T21:31:49.666Z,34.25
2023-09-11T21:34:55.261Z,34.24
2023-09-11T21:37:54.631Z,34.16
2023-09-11T21:40:46.631Z,34.21
2023-09-11T21:43:54.017Z,34.13
2023-09-11T21:46:59.777Z,33.99
2023-09-11T21:50:05.240Z,33.78
2023-09-11T21:53:09.929Z,33.80
2023-09-11T21:56:14.940Z,33.68
2023-09-11T21:59:20.595Z,33.86
2023-09-11T22:02:26.560Z,34.12
2023-09-11T22:05:32.732Z,33.93
2023-09-11T22:08:38.058Z,33.76
2023-09-11T22:11:44.796Z,34.08
2023-09-11T22:14:50.223Z,34.19
2023-09-11T22:17:56.142Z,34.54
2023-09-11T22:21:01.960Z,34.65
2023-09-11T22:24:07.605Z,34.61
2023-09-11T22:27:23.518Z,34.68
2023-09-11T22:30:22.066Z,34.58
2023-09-11T22:33:27.705Z,34.61
2023-09-11T22:36:33.208Z,34.71
2023-09-11T22:39:39.208Z,34.71
2023-09-11T22:42:46.086Z,35.01
2023-09-11T22:45:50.910Z,35.12
2023-09-11T22:48:57.090Z,35.41
2023-09-11T22:52:03.748Z,35.67
2023-09-11T22:55:11.636Z,35.85
2023-09-11T22:58:17.309Z,36.19
2023-09-11T23:01:33.235Z,36.20
2023-09-11T23:04:38.533Z,36.55
2023-09-11T23:07:43.216Z,36.55
2023-09-11T23:10:49.002Z,35.98
2023-09-11T23:13:54.360Z,35.59
2023-09-11T23:16:59.670Z,35.40
2023-09-11T23:20:05.539Z,35.30
2023-09-11T23:23:10.552Z,35.07
2023-09-11T23:26:15.942Z,34.96
2023-09-11T23:29:21.800Z,34.79
2023-09-11T23:32:27.615Z,34.69
2023-09-11T23:35:32.713Z,35.04
2023-09-11T23:38:37.899Z,35.17
2023-09-11T23:41:44.386Z,35.03
2023-09-11T23:44:49.892Z,35.32
2023-09-11T23:47:56.531Z,35.06
2023-09-11T23:51:03.288Z,35.18
2023-09-11T23:54:09.422Z,35.24
2023-09-11T23:57:16.206Z,35.51
